Time;durP1;ratioP1;P1;durP2;ratioP2;P2;SDS_P1;SDS_P2;PMS_P1;PMS_P2;Temp;Humidity;BMP_temperature;BMP_pressure;BME280_temperature;BME280_humidity;BME280_pressure;Samples;Min_cycle;Max_cycle;Signal;HPM_P1;HPM_P2
2023/04/26 00:02:14;;;;;;;25.20;5.97;;;;;;;8.77;58.79;98655.59;5107545;28;20032;-49
2023/04/26 00:04:40;;;;;;;17.25;5.95;;;;;;;8.66;59.37;98650.88;5092029;28;20077;-49
2023/04/26 00:07:06;;;;;;;12.63;6.22;;;;;;;8.50;60.01;98644.91;5091867;28;20027;-49
2023/04/26 00:09:32;;;;;;;13.10;5.72;;;;;;;8.32;60.04;98647.13;5091993;28;20416;-48
2023/04/26 00:11:58;;;;;;;11.95;4.68;;;;;;;8.19;60.74;98648.63;5107466;28;20085;-49
2023/04/26 00:14:25;;;;;;;9.75;4.60;;;;;;;8.25;61.26;98649.69;5107520;28;20028;-49
2023/04/26 00:16:50;;;;;;;14.55;5.90;;;;;;;8.27;61.17;98652.91;5091786;28;20061;-49
2023/04/26 00:19:17;;;;;;;13.75;5.22;;;;;;;8.34;60.58;98659.00;5091852;28;20432;-49
2023/04/26 00:21:43;;;;;;;11.27;4.85;;;;;;;8.34;60.74;98659.00;5091767;28;20036;-49
2023/04/26 00:24:08;;;;;;;14.52;4.57;;;;;;;8.36;61.45;98649.16;5092070;28;20031;-48
2023/04/26 00:26:34;;;;;;;7.40;3.72;;;;;;;8.31;61.65;98654.16;5107332;28;20034;-48
2023/04/26 00:29:02;;;;;;;9.77;4.47;;;;;;;8.24;61.83;98660.31;5107232;28;20035;-48
2023/04/26 00:31:27;;;;;;;12.68;4.80;;;;;;;8.30;61.43;98656.97;5090338;28;20084;-49
2023/04/26 00:33:53;;;;;;;8.32;4.45;;;;;;;8.32;61.26;98653.16;5090304;28;20028;-48
2023/04/26 00:36:19;;;;;;;11.93;5.32;;;;;;;8.25;61.92;98660.13;5091660;28;20551;-48
2023/04/26 00:38:45;;;;;;;10.15;6.20;;;;;;;8.19;62.38;98664.28;5091445;28;20048;-48
2023/04/26 00:41:11;;;;;;;13.05;5.10;;;;;;;8.23;62.20;98666.53;5091597;28;20506;-49
2023/04/26 00:43:38;;;;;;;12.93;5.05;;;;;;;8.28;62.34;98670.22;5091642;28;20035;-48
2023/04/26 00:46:05;;;;;;;14.65;12.43;;;;;;;8.28;62.08;98670.22;5091619;28;20094;-48
2023/04/26 00:48:31;;;;;;;15.07;10.15;;;;;;;8.22;62.66;98675.38;5090223;28;20058;-48
2023/04/26 00:50:57;;;;;;;11.70;9.52;;;;;;;8.22;62.79;98675.38;5091424;28;20032;-49
2023/04/26 00:53:22;;;;;;;7.05;5.38;;;;;;;8.18;62.07;98674.94;5107294;28;20042;-48
2023/04/26 00:55:50;;;;;;;7.18;4.53;;;;;;;8.04;62.57;98666.13;5107190;28;20034;-49
2023/04/26 00:58:17;;;;;;;4.90;3.58;;;;;;;7.93;62.72;98669.25;5091383;28;20024;-48
2023/04/26 01:00:43;;;;;;;11.13;3.90;;;;;;;7.82;63.61;98677.53;5094627;28;20026;-48
2023/04/26 01:03:10;;;;;;;10.68;3.75;;;;;;;7.97;63.58;98671.28;5110865;28;20024;-48
2023/04/26 01:05:37;;;;;;;14.02;3.67;;;;;;;8.22;63.35;98673.56;5094287;28;20119;-48
2023/04/26 01:08:04;;;;;;;11.90;3.70;;;;;;;8.46;62.89;98667.19;5110770;28;20031;-48
2023/04/26 01:10:31;;;;;;;10.13;3.10;;;;;;;8.69;62.13;98674.88;5095027;28;20090;-48
2023/04/26 01:12:58;;;;;;;13.57;3.80;;;;;;;8.75;60.89;98673.28;5095047;28;20020;-48
2023/04/26 01:15:27;;;;;;;14.40;4.85;;;;;;;8.69;60.71;98671.41;5094922;28;20107;-49
2023/04/26 01:17:53;;;;;;;16.77;4.25;;;;;;;8.62;61.11;98673.19;5094932;28;20032;-48
2023/04/26 01:20:19;;;;;;;10.27;4.85;;;;;;;8.59;61.31;98669.94;5094803;28;20024;-48
2023/04/26 01:22:45;;;;;;;10.27;3.08;;;;;;;8.50;61.32;98665.03;5093614;28;20118;-48
2023/04/26 01:25:12;;;;;;;16.45;3.78;;;;;;;8.62;61.60;98671.38;5110470;28;20512;-48
2023/04/26 01:27:38;;;;;;;11.45;3.40;;;;;;;8.85;60.95;98670.34;5094762;28;20023;-48
2023/04/26 01:30:05;;;;;;;10.27;4.18;;;;;;;8.84;60.39;98663.50;5110332;28;20035;-49
2023/04/26 01:32:31;;;;;;;9.00;3.88;;;;;;;8.48;60.07;98659.97;5094637;28;20378;-48
2023/04/26 01:34:56;;;;;;;24.85;5.50;;;;;;;8.24;61.04;98653.28;5110267;28;20039;-48
2023/04/26 01:37:23;;;;;;;11.77;5.72;;;;;;;8.16;61.57;98656.81;5110053;28;20402;-49
2023/04/26 01:39:49;;;;;;;13.10;4.50;;;;;;;8.24;61.99;98657.69;5094474;28;20024;-48
2023/04/26 01:42:15;;;;;;;5.85;3.92;;;;;;;8.28;61.65;98659.75;5093346;28;20027;-48
2023/04/26 01:44:41;;;;;;;10.02;4.00;;;;;;;8.23;61.64;98666.53;5094432;28;20142;-48
2023/04/26 01:47:07;;;;;;;12.30;4.00;;;;;;;8.06;62.74;98664.16;5110014;28;20024;-48
2023/04/26 01:49:33;;;;;;;14.45;4.38;;;;;;;7.91;63.11;98671.22;5094246;28;20078;-48
2023/04/26 01:51:58;;;;;;;9.52;4.38;;;;;;;7.77;63.29;98663.22;5109896;28;20032;-48
2023/04/26 01:54:24;;;;;;;16.55;5.35;;;;;;;7.65;63.67;98664.69;5109850;28;20032;-48
2023/04/26 01:56:50;;;;;;;11.90;5.30;;;;;;;7.56;63.92;98665.75;5109776;28;20429;-49
2023/04/26 01:59:16;;;;;;;9.25;4.40;;;;;;;7.38;64.23;98658.28;5094176;28;20016;-48
2023/04/26 02:01:45;;;;;;;14.05;4.70;;;;;;;7.36;64.42;98671.53;5094341;28;20042;-48
2023/04/26 02:04:11;;;;;;;19.77;5.78;;;;;;;7.46;64.87;98663.41;5092704;28;20401;-48
2023/04/26 02:06:37;;;;;;;10.98;5.53;;;;;;;7.63;64.77;98658.84;5093945;28;20107;-48
2023/04/26 02:09:08;;;;;;;17.15;6.22;;;;;;;7.68;63.47;98660.88;5093807;28;20107;-48
2023/04/26 02:11:34;;;;;;;8.32;4.40;;;;;;;7.55;63.81;98661.53;5092782;28;20024;-49
2023/04/26 02:14:01;;;;;;;13.63;4.82;;;;;;;7.37;64.05;98662.72;5092549;28;20024;-49
2023/04/26 02:16:27;;;;;;;10.05;4.38;;;;;;;7.23;64.77;98657.50;5093733;28;20024;-49
2023/04/26 02:18:53;;;;;;;12.25;4.38;;;;;;;7.13;65.53;98657.75;5109301;28;20046;-48
2023/04/26 02:21:20;;;;;;;11.95;4.65;;;;;;;7.07;65.76;98653.25;5109334;28;20028;-48
2023/04/26 02:23:46;;;;;;;9.15;4.82;;;;;;;7.28;65.74;98660.34;5092640;28;20032;-48
2023/04/26 02:26:13;;;;;;;13.85;6.20;;;;;;;7.29;65.22;98657.56;5093641;28;20028;-48
2023/04/26 02:28:39;;;;;;;6.05;4.20;;;;;;;7.21;64.94;98665.50;5092308;28;20056;-49
2023/04/26 02:31:05;;;;;;;18.00;6.25;;;;;;;7.13;65.42;98661.16;5108981;28;20059;-48
2023/04/26 02:33:31;;;;;;;13.73;5.63;;;;;;;7.13;65.38;98655.13;5109067;28;20034;-48
2023/04/26 02:35:57;;;;;;;18.52;5.75;;;;;;;7.17;65.82;98653.78;5093288;28;20111;-48
2023/04/26 02:38:27;;;;;;;8.63;5.10;;;;;;;7.25;66.03;98655.50;5108870;28;20083;-48
2023/04/26 02:41:00;;;;;;;12.52;5.53;;;;;;;7.27;65.07;98656.16;5108991;28;20103;-48
2023/04/26 02:43:26;;;;;;;13.15;5.20;;;;;;;7.32;64.98;98656.41;5108990;28;20118;-48
2023/04/26 02:45:52;;;;;;;14.45;5.20;;;;;;;7.24;64.65;98653.88;5093253;28;20028;-49
2023/04/26 02:48:18;;;;;;;12.63;5.10;;;;;;;7.25;65.28;98647.69;5093190;28;20055;-49
2023/04/26 02:50:44;;;;;;;17.67;5.88;;;;;;;7.23;65.85;98655.69;5108721;28;20039;-48
2023/04/26 02:53:09;;;;;;;9.98;4.72;;;;;;;7.25;65.39;98656.31;5093086;28;20482;-49
2023/04/26 02:55:38;;;;;;;25.67;6.05;;;;;;;7.36;65.67;98660.25;5091653;28;20489;-48
2023/04/26 02:58:04;;;;;;;29.65;7.80;;;;;;;7.33;64.91;98661.44;5092883;28;20032;-49
2023/04/26 03:00:30;;;;;;;11.68;7.07;;;;;;;7.28;64.62;98658.56;5092933;28;20029;-48
2023/04/26 03:02:56;;;;;;;9.88;5.65;;;;;;;7.15;65.31;98655.78;5108544;28;20036;-49
2023/04/26 03:05:22;;;;;;;9.95;4.80;;;;;;;7.19;65.39;98654.44;5108508;28;20485;-49
2023/04/26 03:07:47;;;;;;;15.23;5.57;;;;;;;7.17;65.45;98659.81;5092847;28;20028;-49
2023/04/26 03:10:13;;;;;;;20.42;5.38;;;;;;;7.13;65.22;98658.56;5092652;28;20043;-49
2023/04/26 03:12:39;;;;;;;15.65;9.60;;;;;;;7.03;65.38;98654.59;5108383;28;20024;-48
2023/04/26 03:15:05;;;;;;;15.07;5.47;;;;;;;6.83;66.45;98657.69;5108284;28;20418;-48
2023/04/26 03:17:31;;;;;;;16.60;6.10;;;;;;;6.73;66.59;98654.53;5092705;28;20055;-49
2023/04/26 03:19:57;;;;;;;25.88;5.50;;;;;;;6.70;67.27;98644.44;5108443;28;20052;-48
2023/04/26 03:22:23;;;;;;;11.60;5.13;;;;;;;6.79;67.23;98643.38;5092384;28;20405;-49
2023/04/26 03:24:48;;;;;;;13.45;6.38;;;;;;;6.89;67.31;98654.38;5092496;28;20410;-48
2023/04/26 03:27:14;;;;;;;14.05;6.28;;;;;;;6.84;66.25;98648.06;5092433;28;20059;-48
2023/04/26 03:29:40;;;;;;;14.48;5.25;;;;;;;6.72;66.67;98655.50;5108027;28;20052;-48
2023/04/26 03:32:06;;;;;;;12.23;4.53;;;;;;;6.75;66.85;98657.78;5108034;28;20042;-49
2023/04/26 03:34:32;;;;;;;9.23;4.57;;;;;;;6.65;66.98;98650.19;5092368;28;20035;-49
2023/04/26 03:36:58;;;;;;;21.02;4.53;;;;;;;6.72;67.97;98651.13;5090895;28;20059;-49
2023/04/26 03:39:24;;;;;;;11.85;4.90;;;;;;;6.88;67.70;98644.94;5107893;28;20031;-48
2023/04/26 03:41:49;;;;;;;7.53;4.38;;;;;;;6.86;66.40;98648.69;5107945;28;20024;-48
2023/04/26 03:44:15;;;;;;;14.35;4.60;;;;;;;6.79;67.52;98638.19;5107828;28;20032;-48
2023/04/26 03:46:42;;;;;;;8.52;4.28;;;;;;;6.76;66.86;98638.50;5092157;28;20035;-48
2023/04/26 03:49:07;;;;;;;9.20;3.88;;;;;;;6.75;67.39;98652.56;5107723;28;20055;-48
2023/04/26 03:51:33;;;;;;;12.02;4.38;;;;;;;6.89;67.51;98648.38;5092105;28;20051;-48
2023/04/26 03:53:59;;;;;;;17.98;5.05;;;;;;;7.09;67.56;98653.88;5107760;28;20028;-48
2023/04/26 03:56:25;;;;;;;23.52;11.13;;;;;;;7.28;66.87;98649.91;5108049;28;20398;-49
2023/04/26 03:58:51;;;;;;;9.55;4.97;;;;;;;7.32;65.96;98653.78;5090707;28;20039;-49
2023/04/26 04:01:18;;;;;;;15.55;4.85;;;;;;;7.31;65.72;98650.38;5107693;28;20024;-49
2023/04/26 04:03:44;;;;;;;11.27;4.80;;;;;;;7.27;66.11;98637.88;5107888;28;20028;-49
2023/04/26 04:06:09;;;;;;;14.15;4.65;;;;;;;7.34;66.11;98636.13;5107573;28;20512;-48
2023/04/26 04:08:35;;;;;;;16.42;6.80;;;;;;;7.34;65.96;98641.38;5092254;28;20020;-48
2023/04/26 04:11:01;;;;;;;16.80;6.03;;;;;;;7.17;65.31;98644.16;5091828;28;20020;-48
2023/04/26 04:13:27;;;;;;;9.95;5.15;;;;;;;7.00;65.97;98646.13;5107838;28;20443;-48
2023/04/26 04:15:53;;;;;;;14.95;5.57;;;;;;;6.91;66.09;98656.81;5107436;28;20040;-48
2023/04/26 04:18:18;;;;;;;15.52;5.15;;;;;;;6.78;66.71;98647.81;5091885;28;20149;-48
2023/04/26 04:20:45;;;;;;;9.27;4.78;;;;;;;6.66;66.76;98648.38;5107432;28;20028;-49
2023/04/26 04:23:10;;;;;;;15.63;5.47;;;;;;;6.59;67.58;98648.28;5107435;28;20024;-49
2023/04/26 04:25:37;;;;;;;17.95;4.65;;;;;;;6.40;67.45;98660.00;5091741;28;20039;-48
2023/04/26 04:28:03;;;;;;;11.50;5.10;;;;;;;6.22;67.52;98659.47;5091782;28;20036;-49
2023/04/26 04:30:33;;;;;;;17.77;5.30;;;;;;;6.03;68.72;98664.13;5107316;28;20039;-49
2023/04/26 04:32:59;;;;;;;11.60;5.50;;;;;;;6.09;69.41;98670.44;5091744;28;20032;-48
2023/04/26 04:35:32;;;;;;;27.83;5.45;;;;;;;6.30;69.69;98662.00;5094463;28;20051;-48
2023/04/26 04:37:58;;;;;;;13.60;4.85;;;;;;;6.62;69.64;98673.19;5095625;28;20048;-49
2023/04/26 04:40:25;;;;;;;12.60;5.10;;;;;;;6.75;68.79;98676.03;5095758;28;20058;-49
2023/04/26 04:42:52;;;;;;;11.57;4.90;;;;;;;6.74;67.76;98671.78;5095809;28;20028;-48
2023/04/26 04:45:19;;;;;;;16.50;5.20;;;;;;;6.81;67.94;98670.09;5095534;28;20558;-48
2023/04/26 04:47:45;;;;;;;13.18;5.45;;;;;;;6.82;67.99;98673.53;5111204;28;20516;-48
2023/04/26 04:50:11;;;;;;;23.65;5.30;;;;;;;6.86;67.74;98678.22;5095316;28;20032;-48
2023/04/26 04:52:36;;;;;;;13.63;4.30;;;;;;;6.80;67.19;98679.72;5094164;28;20458;-48
2023/04/26 04:55:03;;;;;;;13.93;5.10;;;;;;;6.70;67.06;98678.34;5111026;28;20405;-48
2023/04/26 04:57:31;;;;;;;17.50;7.13;;;;;;;6.73;67.67;98681.41;5094121;28;20028;-48
2023/04/26 04:59:57;;;;;;;11.25;5.20;;;;;;;6.87;66.98;98677.22;5110971;28;20027;-48
2023/04/26 05:02:24;;;;;;;16.23;5.93;;;;;;;7.49;65.60;98678.72;5095251;28;20401;-48
2023/04/26 05:04:50;;;;;;;10.50;4.82;;;;;;;8.26;63.97;98677.44;5110843;28;20494;-48
2023/04/26 05:07:17;;;;;;;13.35;5.47;;;;;;;8.91;61.12;98685.28;5095184;28;20060;-48
2023/04/26 05:09:43;;;;;;;16.88;5.05;;;;;;;9.49;60.27;98685.06;5110682;28;20108;-49
2023/04/26 05:12:09;;;;;;;13.32;5.03;;;;;;;10.42;57.72;98687.25;5095094;28;20043;-49
2023/04/26 05:14:35;;;;;;;27.05;6.78;;;;;;;11.18;55.83;98686.88;5110704;28;20028;-48
2023/04/26 05:17:00;;;;;;;8.23;4.55;;;;;;;11.79;52.80;98689.19;5110539;28;20429;-48
2023/04/26 05:19:26;;;;;;;9.63;4.60;;;;;;;12.23;51.17;98683.34;5110558;28;20024;-48
2023/04/26 05:21:52;;;;;;;19.80;5.47;;;;;;;12.38;50.51;98687.31;5094772;28;20032;-49
2023/04/26 05:24:18;;;;;;;15.88;5.43;;;;;;;12.88;49.94;98683.13;5110813;28;20089;-49
2023/04/26 05:26:44;;;;;;;16.52;4.43;;;;;;;13.44;48.65;98692.78;5094725;28;20028;-49
2023/04/26 05:29:10;;;;;;;9.98;4.70;;;;;;;13.53;47.20;98688.81;5094590;28;20024;-49
2023/04/26 05:31:35;;;;;;;11.35;4.88;;;;;;;13.39;46.88;98687.34;5110317;28;20442;-49
2023/04/26 05:34:01;;;;;;;10.73;4.90;;;;;;;12.72;47.53;98700.25;5110340;28;20028;-47
2023/04/26 05:36:28;;;;;;;13.35;4.90;;;;;;;11.80;49.23;98700.50;5110187;28;20085;-47
2023/04/26 05:38:53;;;;;;;13.00;4.70;;;;;;;11.11;51.54;98699.25;5110003;28;20467;-47
2023/04/26 05:41:19;;;;;;;17.00;5.88;;;;;;;10.80;52.76;98700.63;5094454;28;20020;-49
2023/04/26 05:43:46;;;;;;;9.15;5.03;;;;;;;10.73;53.29;98708.50;5094338;28;20073;-48
2023/04/26 05:46:12;;;;;;;17.00;5.10;;;;;;;11.08;53.22;98713.56;5109967;28;20075;-48
2023/04/26 05:48:38;;;;;;;16.38;5.97;;;;;;;11.83;51.47;98713.25;5094341;28;20031;-48
2023/04/26 05:51:04;;;;;;;15.32;5.65;;;;;;;12.73;49.67;98709.75;5094164;28;20031;-48
2023/04/26 05:53:30;;;;;;;26.30;6.72;;;;;;;13.25;48.27;98712.19;5094241;28;20493;-49
2023/04/26 05:55:56;;;;;;;17.08;5.15;;;;;;;13.85;46.03;98712.41;5094170;28;20478;-49
2023/04/26 05:58:22;;;;;;;29.77;6.57;;;;;;;14.17;45.62;98712.22;5109801;28;20024;-49
2023/04/26 06:00:47;;;;;;;27.42;9.05;;;;;;;14.61;44.28;98709.41;5094065;28;20031;-49
2023/04/26 06:03:14;;;;;;;22.95;6.45;;;;;;;14.87;43.59;98706.38;5109769;28;20119;-48
2023/04/26 06:05:40;;;;;;;14.32;6.45;;;;;;;15.40;42.07;98703.88;5093884;28;20509;-48
2023/04/26 06:08:06;;;;;;;22.80;7.00;;;;;;;15.96;41.45;98694.50;5093980;28;20032;-46
2023/04/26 06:10:34;;;;;;;8.90;5.18;;;;;;;16.66;40.59;98698.69;5093796;28;20128;-46
2023/04/26 06:13:00;;;;;;;15.35;4.88;;;;;;;17.47;39.09;98686.94;5109591;28;20580;-46
2023/04/26 06:15:26;;;;;;;20.95;5.45;;;;;;;18.46;37.11;98680.63;5093859;28;20106;-46
2023/04/26 06:17:52;;;;;;;17.23;4.82;;;;;;;18.65;35.99;98678.41;5109770;28;20027;-46
2023/04/26 06:20:18;;;;;;;12.05;4.85;;;;;;;18.87;36.29;98673.00;5109416;28;20032;-46
2023/04/26 06:22:44;;;;;;;16.15;5.10;;;;;;;19.32;34.64;98684.22;5093677;28;20023;-47
2023/04/26 06:25:10;;;;;;;15.90;5.30;;;;;;;19.23;34.72;98672.47;5093675;28;20043;-47
2023/04/26 06:27:37;;;;;;;14.95;4.47;;;;;;;19.55;34.45;98683.00;5092252;28;20111;-46
2023/04/26 06:30:05;;;;;;;10.48;4.40;;;;;;;19.84;34.32;98687.94;5109110;28;20032;-47
2023/04/26 06:32:31;;;;;;;8.63;4.20;;;;;;;20.76;33.14;98685.50;5093411;28;20032;-47
2023/04/26 06:34:57;;;;;;;10.77;4.10;;;;;;;21.37;31.84;98689.16;5093402;28;20036;-47
2023/04/26 06:37:23;;;;;;;10.45;4.45;;;;;;;22.25;31.08;98693.91;5091943;28;20062;-44
2023/04/26 06:39:48;;;;;;;10.57;4.70;;;;;;;23.19;29.62;98689.47;5093261;28;20032;-44
2023/04/26 06:42:14;;;;;;;19.30;5.25;;;;;;;22.93;29.29;98679.75;5093313;28;20550;-44
2023/04/26 06:44:41;;;;;;;9.27;4.18;;;;;;;22.36;29.89;98672.47;5108891;28;20122;-44
2023/04/26 06:47:08;;;;;;;8.63;4.63;;;;;;;22.36;30.13;98683.97;5108849;28;20028;-45
2023/04/26 06:49:34;;;;;;;10.18;5.00;;;;;;;22.71;30.07;98671.41;5108669;28;20035;-44
2023/04/26 06:52:00;;;;;;;14.35;4.72;;;;;;;22.86;30.29;98668.59;5093139;28;20032;-45
2023/04/26 06:54:28;;;;;;;19.30;5.35;;;;;;;23.33;30.03;98666.28;5108694;28;20181;-44
2023/04/26 06:56:53;;;;;;;11.18;4.47;;;;;;;24.16;28.92;98671.47;5108171;28;20024;-45
2023/04/26 06:59:19;;;;;;;10.52;4.22;;;;;;;24.99;28.22;98666.41;5108889;28;20505;-45
2023/04/26 07:01:45;;;;;;;11.32;4.80;;;;;;;25.37;27.36;98675.13;5092859;28;20028;-45
2023/04/26 07:04:11;;;;;;;14.15;4.53;;;;;;;25.36;27.73;98678.13;5092887;28;20497;-45
2023/04/26 07:06:38;;;;;;;34.53;5.90;;;;;;;25.62;27.17;98671.16;5092793;28;20024;-45
2023/04/26 07:09:04;;;;;;;15.63;5.43;;;;;;;25.99;26.59;98672.03;5092704;28;20063;-45
2023/04/26 07:11:30;;;;;;;18.38;4.68;;;;;;;26.38;26.24;98665.25;5108319;28;20028;-45
2023/04/26 07:13:56;;;;;;;17.60;4.20;;;;;;;26.99;25.29;98676.41;5108343;28;20028;-45
2023/04/26 07:16:23;;;;;;;15.95;4.82;;;;;;;27.86;24.62;98673.25;5092700;28;20050;-45
2023/04/26 07:18:49;;;;;;;15.70;4.53;;;;;;;28.59;23.48;98672.69;5092543;28;20401;-45
2023/04/26 07:21:15;;;;;;;14.27;4.90;;;;;;;29.29;22.67;98670.59;5108235;28;20031;-45
2023/04/26 07:23:41;;;;;;;17.27;4.93;;;;;;;29.77;21.94;98666.72;5092570;28;20035;-45
2023/04/26 07:26:09;;;;;;;13.05;4.80;;;;;;;29.92;21.62;98678.88;5108126;28;20028;-45
2023/04/26 07:28:35;;;;;;;15.13;4.45;;;;;;;30.28;21.37;98685.63;5092395;28;20027;-45
2023/04/26 07:31:00;;;;;;;16.63;4.22;;;;;;;30.76;20.80;98684.25;5074092;28;20506;-45
2023/04/26 07:33:26;;;;;;;17.83;4.45;;;;;;;31.18;20.22;98684.13;5107987;28;20027;-45
2023/04/26 07:35:55;;;;;;;40.03;6.90;;;;;;;31.12;20.96;98676.56;5107873;28;20043;-45
2023/04/26 07:38:22;;;;;;;15.63;3.90;;;;;;;31.00;20.53;98672.69;5098060;28;20425;-45
2023/04/26 07:40:50;;;;;;;28.20;5.50;;;;;;;31.11;20.56;98666.84;5107653;28;20054;-46
2023/04/26 07:43:17;;;;;;;13.60;3.90;;;;;;;31.40;20.51;98663.91;5092217;28;20032;-45
2023/04/26 07:45:43;;;;;;;10.68;3.65;;;;;;;31.77;19.25;98663.13;5090803;28;20548;-44
2023/04/26 07:48:09;;;;;;;13.00;3.75;;;;;;;31.78;18.98;98657.34;5092154;28;20028;-45
2023/04/26 07:50:35;;;;;;;15.52;3.30;;;;;;;31.58;19.36;98666.44;5107594;28;20028;-45
2023/04/26 07:53:01;;;;;;;13.52;3.88;;;;;;;31.73;19.48;98660.28;5091991;28;20418;-45
2023/04/26 07:55:27;;;;;;;8.18;3.38;;;;;;;31.76;19.44;98656.13;5092007;28;20055;-45
2023/04/26 07:57:53;;;;;;;20.42;3.97;;;;;;;31.71;19.49;98653.63;5092237;28;20057;-46
2023/04/26 08:00:21;;;;;;;10.15;3.38;;;;;;;31.69;19.66;98659.41;5107564;28;20024;-45
2023/04/26 08:02:46;;;;;;;13.55;3.17;;;;;;;32.02;19.08;98663.91;5091918;28;20020;-46
2023/04/26 08:05:13;;;;;;;23.90;4.47;;;;;;;32.27;18.34;98670.03;5091844;28;20035;-46
2023/04/26 08:07:40;;;;;;;48.40;5.07;;;;;;;32.51;18.27;98671.06;5091930;28;20397;-45
2023/04/26 08:10:07;;;;;;;40.03;4.95;;;;;;;32.35;18.23;98662.88;5090915;28;20028;-46
2023/04/26 08:12:34;;;;;;;74.70;6.07;;;;;;;32.16;18.35;98668.97;5090796;28;20032;-46
2023/04/26 08:15:00;;;;;;;36.10;4.40;;;;;;;31.98;18.18;98669.19;5091725;28;20035;-46
2023/04/26 08:17:26;;;;;;;54.47;6.07;;;;;;;31.96;18.58;98679.59;5090506;28;20028;-46
2023/04/26 08:19:52;;;;;;;80.25;6.25;;;;;;;31.50;18.79;98673.56;5091806;28;20501;-46
2023/04/26 08:22:18;;;;;;;32.90;4.43;;;;;;;31.16;19.00;98672.06;5091772;28;20036;-46
2023/04/26 08:24:49;;;;;;;20.33;4.90;;;;;;;30.80;19.72;98676.25;5090450;28;20024;-45
2023/04/26 08:27:16;;;;;;;32.30;5.00;;;;;;;31.01;19.49;98666.16;5091716;28;20057;-46
2023/04/26 08:29:42;;;;;;;59.03;7.18;;;;;;;31.16;19.73;98663.91;5107281;28;20405;-46
2023/04/26 08:32:08;;;;;;;64.78;6.38;;;;;;;31.03;20.03;98665.84;5107352;28;20039;-46
2023/04/26 08:34:34;;;;;;;93.43;7.63;;;;;;;31.08;19.73;98662.09;5073489;28;20032;-46
2023/04/26 08:37:00;;;;;;;28.17;5.60;;;;;;;31.33;19.50;98673.75;5091650;28;20031;-46
2023/04/26 08:39:26;;;;;;;31.98;4.90;;;;;;;31.03;19.83;98665.84;5090156;28;20097;-46
2023/04/26 08:41:58;;;;;;;24.60;4.40;;;;;;;30.92;19.57;98664.69;5107235;28;20498;-46
2023/04/26 08:44:24;;;;;;;9.02;3.67;;;;;;;30.69;19.76;98662.34;5091553;28;20028;-46
2023/04/26 08:47:12;;;;;;;11.38;3.58;;;;;;;30.39;19.85;98670.59;5073697;28;20085;-45
2023/04/26 08:49:44;;;;;;;16.40;3.78;;;;;;;31.18;19.71;98672.50;5091465;28;20028;-46
2023/04/26 08:52:15;;;;;;;6.57;3.08;;;;;;;32.23;18.83;98669.91;5091507;28;20055;-46
2023/04/26 08:54:42;;;;;;;10.38;3.78;;;;;;;33.04;17.99;98674.41;5107125;28;20036;-46
2023/04/26 08:57:08;;;;;;;16.52;4.00;;;;;;;33.63;17.67;98670.03;5091417;28;20081;-46
2023/04/26 08:59:38;;;;;;;10.05;3.63;;;;;;;34.02;16.82;98662.72;5091414;28;20031;-46
2023/04/26 09:02:10;;;;;;;14.68;3.80;;;;;;;34.05;16.89;98666.66;5090318;28;20085;-46
2023/04/26 09:04:36;;;;;;;7.38;3.10;;;;;;;34.21;16.81;98659.25;5091323;28;20031;-46
2023/04/26 09:07:03;;;;;;;11.57;3.60;;;;;;;34.39;16.61;98658.78;5090272;28;20074;-46
2023/04/26 09:09:41;;;;;;;16.02;4.10;;;;;;;34.42;16.49;98650.69;5091268;28;20028;-46
2023/04/26 09:12:07;;;;;;;14.18;3.10;;;;;;;34.29;16.27;98651.19;5090279;28;20020;-46
2023/04/26 09:14:33;;;;;;;7.28;3.03;;;;;;;34.56;16.21;98644.72;5091206;28;20086;-46
2023/04/26 09:16:59;;;;;;;11.80;3.28;;;;;;;34.96;15.55;98651.66;5091196;28;20028;-46
2023/04/26 09:19:36;;;;;;;10.80;3.50;;;;;;;35.25;15.80;98641.22;5073376;28;20024;-46
2023/04/26 09:22:02;;;;;;;35.97;4.15;;;;;;;35.53;15.22;98645.53;5094611;28;20490;-46
2023/04/26 09:24:45;;;;;;;45.88;4.80;;;;;;;35.35;15.13;98646.06;5094758;28;20027;-46
2023/04/26 09:27:11;;;;;;;25.75;4.18;;;;;;;34.91;15.37;98645.72;5110711;28;20020;-46
2023/04/26 09:29:37;;;;;;;31.55;4.63;;;;;;;34.84;15.14;98649.13;5110426;28;20031;-46
2023/04/26 09:32:03;;;;;;;13.90;2.95;;;;;;;34.74;15.16;98649.72;5110277;28;20032;-46
2023/04/26 09:34:29;;;;;;;13.15;3.55;;;;;;;34.97;14.99;98649.72;5110304;28;20059;-46
2023/04/26 09:36:56;;;;;;;41.47;5.03;;;;;;;34.92;14.88;98650.03;5094478;28;20047;-46
2023/04/26 09:39:31;;;;;;;19.55;2.95;;;;;;;34.99;15.28;98644.69;5094385;28;20529;-46
2023/04/26 09:41:58;;;;;;;8.48;2.67;;;;;;;34.98;14.76;98646.63;5110132;28;20131;-46
2023/04/26 09:44:25;;;;;;;7.43;1.98;;;;;;;35.17;14.60;98640.34;5094350;28;20505;-46
2023/04/26 09:47:01;;;;;;;14.30;2.70;;;;;;;35.23;14.35;98637.31;5094328;28;20024;-46
2023/04/26 09:49:30;;;;;;;5.28;2.10;;;;;;;35.78;14.17;98645.94;5093087;28;20077;-46
2023/04/26 09:52:04;;;;;;;8.18;2.20;;;;;;;35.86;13.81;98628.47;5094179;28;20024;-46
2023/04/26 09:54:39;;;;;;;12.45;2.75;;;;;;;35.75;13.76;98636.50;5109849;28;20119;-46
2023/04/26 09:57:05;;;;;;;9.07;2.50;;;;;;;35.54;13.64;98638.94;5109900;28;20105;-46
2023/04/26 09:59:51;;;;;;;16.85;2.65;;;;;;;34.78;13.99;98626.03;5110068;28;20110;-46
2023/04/26 10:02:22;;;;;;;7.65;2.15;;;;;;;34.81;14.09;98625.31;5094013;28;20114;-46
2023/04/26 10:04:50;;;;;;;5.20;1.92;;;;;;;35.34;13.63;98621.88;5076061;28;20039;-46
2023/04/26 10:07:19;;;;;;;7.07;2.22;;;;;;;35.76;13.35;98616.25;5093960;28;20111;-46
2023/04/26 10:09:46;;;;;;;7.07;2.30;;;;;;;35.56;13.54;98614.78;5093807;28;20099;-46
2023/04/26 10:12:14;;;;;;;11.65;2.08;;;;;;;35.37;13.46;98621.13;5109588;28;20036;-46
2023/04/26 10:14:40;;;;;;;7.65;1.90;;;;;;;35.05;13.59;98615.16;5092491;28;20035;-46
2023/04/26 10:17:06;;;;;;;10.18;2.15;;;;;;;35.09;13.26;98614.06;5093744;28;20554;-46
2023/04/26 10:19:37;;;;;;;10.25;1.80;;;;;;;34.89;13.00;98602.44;5093766;28;20095;-46
2023/04/26 10:22:12;;;;;;;8.60;1.70;;;;;;;35.12;13.23;98588.78;5109252;28;20504;-46
2023/04/26 10:24:38;;;;;;;6.80;1.88;;;;;;;34.93;13.47;98597.06;5092452;28;20024;-46
2023/04/26 10:27:04;;;;;;;9.75;2.90;;;;;;;34.75;13.44;98594.84;5109491;28;20085;-46
2023/04/26 10:29:53;;;;;;;4.88;1.40;;;;;;;33.79;13.40;98599.22;5092384;28;20036;-44
2023/04/26 10:32:19;;;;;;;9.30;1.90;;;;;;;33.55;13.30;98597.53;5088841;28;20089;-44
2023/04/26 10:35:12;;;;;;;9.05;1.70;;;;;;;33.98;13.53;98593.75;5093384;28;20553;-46
2023/04/26 10:38:14;;;;;;;8.75;1.92;;;;;;;34.53;13.11;98590.94;5095938;28;20064;-46
2023/04/26 10:40:40;;;;;;;5.93;1.80;;;;;;;34.54;12.72;98597.16;5070749;28;20036;-46
2023/04/26 10:43:15;;;;;;;4.55;1.50;;;;;;;34.73;12.64;98594.44;5070737;28;20119;-46
2023/04/26 10:45:42;;;;;;;10.63;1.73;;;;;;;34.74;12.40;98595.22;5070788;28;20027;-46
2023/04/26 10:48:17;;;;;;;14.25;2.05;;;;;;;34.65;12.50;98591.88;5070785;28;20033;-46
2023/04/26 10:51:00;;;;;;;5.40;1.73;;;;;;;34.53;12.59;98590.13;5070573;28;20024;-46
2023/04/26 10:53:46;;;;;;;4.00;1.30;;;;;;;34.41;12.81;98586.44;5070701;28;20052;-46
2023/04/26 10:56:24;;;;;;;4.78;1.30;;;;;;;34.62;12.39;98590.69;5063320;28;20641;-46
2023/04/26 10:59:10;;;;;;;13.10;2.15;;;;;;;34.64;12.65;98588.38;5053716;28;20541;-46
2023/04/26 11:01:36;;;;;;;4.53;1.77;;;;;;;34.81;12.50;98587.13;5053730;28;20028;-46
2023/04/26 11:04:09;;;;;;;9.13;1.90;;;;;;;34.67;12.28;98581.44;5070327;28;20029;-46
2023/04/26 11:06:52;;;;;;;3.78;1.60;;;;;;;34.65;12.45;98568.16;5070454;28;20103;-46
2023/04/26 11:09:36;;;;;;;3.03;1.38;;;;;;;34.39;12.43;98571.59;5053653;28;20040;-46
2023/04/26 11:12:11;;;;;;;7.15;1.98;;;;;;;34.31;12.47;98567.97;5070209;28;20031;-46
2023/04/26 11:14:37;;;;;;;6.70;1.70;;;;;;;34.23;12.99;98555.38;5070488;28;20443;-46
2023/04/26 11:17:07;;;;;;;11.73;2.05;;;;;;;34.24;13.21;98553.44;5108267;28;20524;-46
2023/04/26 11:19:33;;;;;;;13.82;2.42;;;;;;;34.01;13.34;98546.75;5092572;28;20085;-46
2023/04/26 11:22:00;;;;;;;6.47;1.73;;;;;;;33.50;13.58;98546.88;5108217;28;20450;-46
2023/04/26 11:24:28;;;;;;;9.40;2.00;;;;;;;33.76;13.29;98540.81;5092764;28;20027;-46
2023/04/26 11:26:54;;;;;;;6.70;1.63;;;;;;;33.82;13.44;98544.03;5092468;28;20543;-46
2023/04/26 11:29:21;;;;;;;7.45;1.83;;;;;;;33.81;13.63;98543.25;5108318;28;20028;-44
2023/04/26 11:31:57;;;;;;;6.00;1.52;;;;;;;33.20;13.58;98550.13;5092388;28;20099;-45
2023/04/26 11:34:34;;;;;;;4.82;1.60;;;;;;;32.51;14.48;98546.09;5092345;28;20024;-46